Time,TemperatureF,DewpointF,PressureIn,WindDirection,WindDirectionDegrees,WindSpeedMPH,WindSpeedGustMPH,Humidity,HourlyPrecipIn,Conditions,Clouds,dailyrainin,SoftwareType,DateUTC
2013-01-24 00:00:00,10.1,2.9,30.58,ESE,104,1.0,1.0,72,0.00,,,0.01,Wunderground v.1.15,2013-01-24 06:00:00,
2013-01-24 00:05:00,10.0,2.8,30.58,SE,139,1.0,2.0,72,0.00,,,0.01,Wunderground v.1.15,2013-01-24 06:05:00,
2013-01-24 00:10:00,9.9,2.7,30.58,ESE,113,1.0,2.0,72,0.00,,,0.01,Wunderground v.1.15,2013-01-24 06:10:00,
2013-01-24 00:15:00,9.7,2.2,30.58,East,96,0.0,2.0,71,0.00,,,0.01,Wunderground v.1.15,2013-01-24 06:15:00,
2013-01-24 00:20:00,9.6,2.1,30.58,ENE,76,1.0,2.0,71,0.00,,,0.01,Wunderground v.1.15,2013-01-24 06:20:00,
2013-01-24 00:25:00,9.5,2.0,30.59,ESE,104,1.0,2.0,71,0.00,,,0.01,Wunderground v.1.15,2013-01-24 06:25:00,
2013-01-24 00:35:00,9.1,1.3,30.59,East,98,1.0,2.0,70,0.00,,,0.00,Wunderground v.1.15,2013-01-24 06:35:00,
2013-01-24 00:40:00,9.0,1.2,30.59,SE,125,0.0,2.0,70,0.00,,,0.00,Wunderground v.1.15,2013-01-24 06:40:00,
2013-01-24 00:45:00,8.8,1.0,30.58,ENE,64,0.0,2.0,70,0.00,,,0.00,Wunderground v.1.15,2013-01-24 06:45:00,
2013-01-24 00:50:00,8.7,0.6,30.59,East,92,1.0,2.0,69,0.00,,,0.00,Wunderground v.1.15,2013-01-24 06:50:00,
2013-01-24 00:55:00,8.6,0.5,30.60,SW,222,1.0,2.0,69,0.00,,,0.00,Wunderground v.1.15,2013-01-24 06:55:00,
2013-01-24 01:00:00,8.4,0.6,30.60,ESE,123,1.0,1.0,70,0.00,,,0.00,Wunderground v.1.15,2013-01-24 07:00:00,
2013-01-24 01:10:00,8.0,0.2,30.61,SE,136,0.0,2.0,70,0.00,,,0.00,Wunderground v.1.15,2013-01-24 07:10:00,
2013-01-24 01:15:00,7.8,0.3,30.61,SW,217,0.0,2.0,71,0.00,,,0.00,Wunderground v.1.15,2013-01-24 07:15:00,
2013-01-24 01:20:00,7.7,0.2,30.61,WSW,245,0.0,2.0,71,0.00,,,0.00,Wunderground v.1.15,2013-01-24 07:20:00,
2013-01-24 01:25:00,7.4,-0.6,30.61,NE,55,1.0,2.0,69,0.00,,,0.00,Wunderground v.1.15,2013-01-24 07:25:00,
2013-01-24 01:30:00,7.2,-0.8,30.61,ENE,71,1.0,1.0,69,0.00,,,0.00,Wunderground v.1.15,2013-01-24 07:30:00,
2013-01-24 01:35:00,7.0,-1.3,30.61,ESE,122,1.0,2.0,68,0.00,,,0.00,Wunderground v.1.15,2013-01-24 07:35:00,
2013-01-24 01:45:00,6.6,-1.4,30.62,SSW,200,1.0,3.0,69,0.00,,,0.00,Wunderground v.1.15,2013-01-24 07:45:00,
2013-01-24 01:50:00,6.3,-1.7,30.62,East,92,1.0,2.0,69,0.00,,,0.00,Wunderground v.1.15,2013-01-24 07:50:00,
2013-01-24 01:55:00,6.1,-1.9,30.62,ESE,110,1.0,2.0,69,0.00,,,0.00,Wunderground v.1.15,2013-01-24 07:55:00,
2013-01-24 02:00:00,6.0,-1.7,30.62,East,80,1.0,2.0,70,0.00,,,0.00,Wunderground v.1.15,2013-01-24 08:00:00,
2013-01-24 02:05:00,5.9,-1.8,30.62,ESE,113,1.0,2.0,70,0.00,,,0.00,Wunderground v.1.15,2013-01-24 08:05:00,
2013-01-24 02:10:00,5.7,-2.0,30.62,WSW,252,0.0,2.0,70,0.00,,,0.00,Wunderground v.1.15,2013-01-24 08:10:00,
2013-01-24 02:20:00,5.5,-2.2,30.62,SE,141,0.0,2.0,70,0.00,,,0.00,Wunderground v.1.15,2013-01-24 08:20:00,
2013-01-24 02:25:00,5.4,-2.0,30.62,SE,125,0.0,2.0,71,0.00,,,0.00,Wunderground v.1.15,2013-01-24 08:25:00,
2013-01-24 02:30:00,5.3,-2.1,30.63,South,191,0.0,2.0,71,0.00,,,0.00,Wunderground v.1.15,2013-01-24 08:30:00,
2013-01-24 02:35:00,5.2,-2.2,30.62,East,98,0.0,2.0,71,0.00,,,0.00,Wunderground v.1.15,2013-01-24 08:35:00,
2013-01-24 02:45:00,5.0,-2.1,30.62,SE,128,0.0,2.0,72,0.00,,,0.00,Wunderground v.1.15,2013-01-24 08:45:00,
2013-01-24 02:50:00,5.0,-2.1,30.62,ESE,110,0.0,2.0,72,0.00,,,0.00,Wunderground v.1.15,2013-01-24 08:50:00,
2013-01-24 02:55:00,4.9,-2.5,30.62,North,355,0.0,2.0,71,0.00,,,0.00,Wunderground v.1.15,2013-01-24 08:55:00,
2013-01-24 03:00:00,4.8,-2.5,30.63,WSW,246,0.0,2.0,71,0.00,,,0.00,Wunderground v.1.15,2013-01-24 09:00:00,
2013-01-24 03:05:00,4.7,-2.6,30.63,West,278,0.0,2.0,71,0.00,,,0.00,Wunderground v.1.15,2013-01-24 09:05:00,
2013-01-24 03:10:00,4.7,-2.6,30.63,WNW,289,0.0,2.0,71,0.00,,,0.00,Wunderground v.1.15,2013-01-24 09:10:00,
2013-01-24 03:20:00,4.6,-2.4,30.63,SSE,148,0.0,2.0,72,0.00,,,0.00,Wunderground v.1.15,2013-01-24 09:20:00,
2013-01-24 03:25:00,4.5,-2.8,30.63,WSW,257,0.0,2.0,71,0.00,,,0.00,Wunderground v.1.15,2013-01-24 09:25:00,
2013-01-24 03:30:00,4.5,-3.1,30.62,East,100,0.0,2.0,70,0.00,,,0.00,Wunderground v.1.15,2013-01-24 09:30:00,
2013-01-24 03:35:00,4.4,-3.8,30.63,East,79,0.0,2.0,68,0.00,,,0.00,Wunderground v.1.15,2013-01-24 09:35:00,
2013-01-24 03:40:00,4.4,-3.8,30.63,WNW,300,0.0,2.0,68,0.00,,,0.00,Wunderground v.1.15,2013-01-24 09:40:00,
2013-01-24 03:50:00,4.2,-4.0,30.63,ENE,70,0.0,2.0,68,0.00,,,0.00,Wunderground v.1.15,2013-01-24 09:50:00,
2013-01-24 03:55:00,4.1,-4.1,30.62,East,98,0.0,2.0,68,0.00,,,0.00,Wunderground v.1.15,2013-01-24 09:55:00,
2013-01-24 04:00:00,4.0,-4.2,30.62,WNW,288,0.0,2.0,68,0.00,,,0.00,Wunderground v.1.15,2013-01-24 10:00:00,
2013-01-24 04:05:00,4.0,-3.9,30.62,ESE,115,0.0,2.0,69,0.00,,,0.00,Wunderground v.1.15,2013-01-24 10:05:00,
2013-01-24 04:15:00,3.8,-4.1,30.62,East,96,0.0,2.0,69,0.00,,,0.00,Wunderground v.1.15,2013-01-24 10:15:00,
2013-01-24 04:20:00,3.7,-3.9,30.62,East,82,0.0,2.0,70,0.00,,,0.00,Wunderground v.1.15,2013-01-24 10:20:00,
2013-01-24 04:25:00,3.6,-4.0,30.61,SE,132,0.0,2.0,70,0.00,,,0.00,Wunderground v.1.15,2013-01-24 10:25:00,
2013-01-24 04:30:00,3.6,-4.0,30.61,SE,135,0.0,2.0,70,0.00,,,0.00,Wunderground v.1.15,2013-01-24 10:30:00,
2013-01-24 04:40:00,3.6,-4.0,30.61,WNW,285,0.0,2.0,70,0.00,,,0.00,Wunderground v.1.15,2013-01-24 10:40:00,
2013-01-24 04:45:00,3.6,-4.3,30.61,East,83,0.0,2.0,69,0.00,,,0.00,Wunderground v.1.15,2013-01-24 10:45:00,
2013-01-24 04:50:00,3.7,-4.2,30.60,SSE,165,0.0,2.0,69,0.00,,,0.00,Wunderground v.1.15,2013-01-24 10:50:00,
2013-01-24 04:55:00,3.7,-4.5,30.60,East,99,0.0,2.0,68,0.00,,,0.00,Wunderground v.1.15,2013-01-24 10:55:00,
2013-01-24 05:00:00,3.7,-4.5,30.60,East,82,0.0,2.0,68,0.00,,,0.00,Wunderground v.1.15,2013-01-24 11:00:00,
2013-01-24 05:05:00,3.7,-4.2,30.60,ESE,121,0.0,2.0,69,0.00,,,0.00,Wunderground v.1.15,2013-01-24 11:05:00,
2013-01-24 05:15:00,3.6,-4.3,30.60,SE,129,0.0,2.0,69,0.00,,,0.00,Wunderground v.1.15,2013-01-24 11:15:00,
2013-01-24 05:20:00,3.6,-4.3,30.59,ENE,63,0.0,2.0,69,0.00,,,0.00,Wunderground v.1.15,2013-01-24 11:20:00,
2013-01-24 05:25:00,3.5,-4.4,30.60,North,1,0.0,2.0,69,0.00,,,0.00,Wunderground v.1.15,2013-01-24 11:25:00,
2013-01-24 05:30:00,3.5,-4.4,30.59,ESE,107,0.0,2.0,69,0.00,,,0.00,Wunderground v.1.15,2013-01-24 11:30:00,
2013-01-24 05:35:00,3.4,-4.2,30.60,ESE,122,0.0,2.0,70,0.00,,,0.00,Wunderground v.1.15,2013-01-24 11:35:00,
2013-01-24 05:40:00,3.3,-4.3,30.60,ESE,105,0.0,2.0,70,0.00,,,0.00,Wunderground v.1.15,2013-01-24 11:40:00,
2013-01-24 05:50:00,3.3,-4.3,30.59,SE,128,0.0,2.0,70,0.00,,,0.00,Wunderground v.1.15,2013-01-24 11:50:00,
2013-01-24 05:55:00,3.2,-4.1,30.59,West,259,0.0,2.0,71,0.00,,,0.00,Wunderground v.1.15,2013-01-24 11:55:00,
2013-01-24 06:05:00,3.2,-4.1,30.59,SSE,168,0.0,2.0,71,0.00,,,0.00,Wunderground v.1.15,2013-01-24 12:05:00,
2013-01-24 06:15:00,3.2,-4.1,30.59,East,92,0.0,2.0,71,0.00,,,0.00,Wunderground v.1.15,2013-01-24 12:15:00,
2013-01-24 06:20:00,3.1,-4.2,30.59,East,101,0.0,2.0,71,0.00,,,0.00,Wunderground v.1.15,2013-01-24 12:20:00,
2013-01-24 06:25:00,3.1,-4.2,30.58,ESE,123,0.0,2.0,71,0.00,,,0.00,Wunderground v.1.15,2013-01-24 12:25:00,
2013-01-24 06:30:00,3.0,-4.3,30.58,ENE,73,0.0,2.0,71,0.00,,,0.00,Wunderground v.1.15,2013-01-24 12:30:00,
2013-01-24 06:40:00,3.1,-3.9,30.59,NNE,23,0.0,2.0,72,0.00,,,0.00,Wunderground v.1.15,2013-01-24 12:40:00,
2013-01-24 06:45:00,3.2,-4.1,30.60,NNE,23,0.0,2.0,71,0.00,,,0.00,Wunderground v.1.15,2013-01-24 12:45:00,
2013-01-24 06:50:00,3.2,-4.1,30.61,ESE,105,0.0,2.0,71,0.00,,,0.00,Wunderground v.1.15,2013-01-24 12:50:00,
2013-01-24 06:55:00,3.2,-4.1,30.60,East,82,0.0,2.0,71,0.00,,,0.00,Wunderground v.1.15,2013-01-24 12:55:00,
2013-01-24 07:00:00,3.2,-4.1,30.60,ESE,104,0.0,2.0,71,0.00,,,0.00,Wunderground v.1.15,2013-01-24 13:00:00,
2013-01-24 07:10:00,3.2,-4.1,30.59,ESE,115,0.0,2.0,71,0.00,,,0.00,Wunderground v.1.15,2013-01-24 13:10:00,
2013-01-24 07:15:00,3.2,-4.1,30.58,East,87,0.0,2.0,71,0.00,,,0.00,Wunderground v.1.15,2013-01-24 13:15:00,
2013-01-24 07:20:00,3.2,-4.1,30.59,South,187,0.0,2.0,71,0.00,,,0.00,Wunderground v.1.15,2013-01-24 13:20:00,
2013-01-24 07:25:00,3.3,-3.7,30.59,SSE,152,0.0,2.0,72,0.00,,,0.00,Wunderground v.1.15,2013-01-24 13:25:00,
2013-01-24 07:30:00,3.3,-4.0,30.58,ESE,113,0.0,2.0,71,0.00,,,0.00,Wunderground v.1.15,2013-01-24 13:30:00,
2013-01-24 07:35:00,3.3,-4.0,30.58,East,100,0.0,2.0,71,0.00,,,0.00,Wunderground v.1.15,2013-01-24 13:35:00,
2013-01-24 07:45:00,3.5,-3.5,30.60,East,91,0.0,2.0,72,0.00,,,0.00,Wunderground v.1.15,2013-01-24 13:45:00,
2013-01-24 07:50:00,3.5,-3.5,30.61,ESE,107,0.0,2.0,72,0.00,,,0.00,Wunderground v.1.15,2013-01-24 13:50:00,
2013-01-24 07:55:00,3.5,-3.5,30.61,East,99,0.0,2.0,72,0.00,,,0.00,Wunderground v.1.15,2013-01-24 13:55:00,
2013-01-24 08:00:00,3.6,-3.4,30.61,North,11,0.0,2.0,72,0.00,,,0.00,Wunderground v.1.15,2013-01-24 14:00:00,
2013-01-24 08:05:00,3.7,-3.6,30.60,NNE,32,0.0,2.0,71,0.00,,,0.00,Wunderground v.1.15,2013-01-24 14:05:00,
2013-01-24 08:10:00,3.7,-3.6,30.61,NE,51,0.0,2.0,71,0.00,,,0.00,Wunderground v.1.15,2013-01-24 14:10:00,
2013-01-24 08:20:00,3.9,-3.4,30.60,SE,127,0.0,2.0,71,0.00,,,0.00,Wunderground v.1.15,2013-01-24 14:20:00,
2013-01-24 08:25:00,3.9,-3.7,30.59,East,96,0.0,2.0,70,0.00,,,0.00,Wunderground v.1.15,2013-01-24 14:25:00,
2013-01-24 08:30:00,4.0,-3.3,30.60,NE,37,0.0,2.0,71,0.00,,,0.00,Wunderground v.1.15,2013-01-24 14:30:00,
2013-01-24 08:35:00,4.2,-3.1,30.60,East,81,0.0,2.0,71,0.00,,,0.00,Wunderground v.1.15,2013-01-24 14:35:00,
2013-01-24 08:40:00,4.4,-3.2,30.59,ESE,110,0.0,2.0,70,0.00,,,0.00,Wunderground v.1.15,2013-01-24 14:40:00,
2013-01-24 08:45:00,4.6,-3.0,30.59,SE,124,0.0,2.0,70,0.00,,,0.00,Wunderground v.1.15,2013-01-24 14:45:00,
2013-01-24 08:50:00,5.0,-2.7,30.59,East,94,0.0,2.0,70,0.00,,,0.00,Wunderground v.1.15,2013-01-24 14:50:00,
2013-01-24 09:00:00,5.4,-2.9,30.59,ESE,117,1.0,2.0,68,0.00,,,0.00,Wunderground v.1.15,2013-01-24 15:00:00,
2013-01-24 09:10:00,5.9,-2.4,30.58,ESE,113,1.0,1.0,68,0.00,,,0.00,Wunderground v.1.15,2013-01-24 15:10:00,
2013-01-24 09:15:00,6.2,-2.7,30.59,SE,127,2.0,4.0,66,0.00,,,0.00,Wunderground v.1.15,2013-01-24 15:15:00,
2013-01-24 09:20:00,6.2,-2.7,30.59,SE,127,2.0,2.0,66,0.00,,,0.00,Wunderground v.1.15,2013-01-24 15:20:00,
2013-01-24 09:25:00,6.3,-2.6,30.59,East,80,2.0,4.0,66,0.00,,,0.00,Wunderground v.1.15,2013-01-24 15:25:00,
2013-01-24 09:35:00,6.3,-3.0,30.59,East,94,2.0,3.0,65,0.00,,,0.00,Wunderground v.1.15,2013-01-24 15:35:00,
2013-01-24 09:40:00,6.5,-2.5,30.59,ESE,119,2.0,2.0,66,0.00,,,0.00,Wunderground v.1.15,2013-01-24 15:40:00,
2013-01-24 09:45:00,6.5,-2.8,30.59,SSE,153,1.0,3.0,65,0.00,,,0.00,Wunderground v.1.15,2013-01-24 15:45:00,
2013-01-24 09:50:00,6.6,-2.4,30.59,East,80,1.0,3.0,66,0.00,,,0.00,Wunderground v.1.15,2013-01-24 15:50:00,
2013-01-24 09:55:00,6.7,-1.9,30.59,East,94,1.0,3.0,67,0.00,,,0.00,Wunderground v.1.15,2013-01-24 15:55:00,
2013-01-24 10:00:00,7.0,-1.7,30.59,East,101,1.0,3.0,67,0.00,,,0.00,Wunderground v.1.15,2013-01-24 16:00:00,
2013-01-24 10:05:00,7.3,-1.7,30.60,ESE,122,1.0,3.0,66,0.00,,,0.00,Wunderground v.1.15,2013-01-24 16:05:00,
2013-01-24 10:10:00,7.6,-1.4,30.60,East,81,1.0,1.0,66,0.00,,,0.00,Wunderground v.1.15,2013-01-24 16:10:00,
2013-01-24 10:20:00,8.1,-0.9,30.59,East,99,1.0,3.0,66,0.00,,,0.00,Wunderground v.1.15,2013-01-24 16:20:00,
2013-01-24 10:25:00,8.3,-1.1,30.59,SSE,167,1.0,5.0,65,0.00,,,0.00,Wunderground v.1.15,2013-01-24 16:25:00,
2013-01-24 10:30:00,8.2,-1.8,30.59,ESE,107,2.0,3.0,63,0.00,,,0.00,Wunderground v.1.15,2013-01-24 16:30:00,
2013-01-24 10:35:00,8.1,-1.6,30.59,SE,136,3.0,3.0,64,0.00,,,0.00,Wunderground v.1.15,2013-01-24 16:35:00,
2013-01-24 10:40:00,8.3,-1.4,30.59,ENE,78,2.0,5.0,64,0.00,,,0.00,Wunderground v.1.15,2013-01-24 16:40:00,
2013-01-24 10:45:00,8.3,-1.4,30.58,East,90,2.0,5.0,64,0.00,,,0.00,Wunderground v.1.15,2013-01-24 16:45:00,
2013-01-24 10:55:00,8.7,-0.7,30.57,SE,124,2.0,4.0,65,0.00,,,0.00,Wunderground v.1.15,2013-01-24 16:55:00,
2013-01-24 11:00:00,9.2,-0.5,30.57,East,82,2.0,2.0,64,0.00,,,0.00,Wunderground v.1.15,2013-01-24 17:00:00,
2013-01-24 11:05:00,9.3,-0.8,30.57,ESE,115,2.0,4.0,63,0.00,,,0.00,Wunderground v.1.15,2013-01-24 17:05:00,
2013-01-24 11:10:00,9.4,-0.3,30.57,ESE,113,2.0,3.0,64,0.00,,,0.00,Wunderground v.1.15,2013-01-24 17:10:00,
2013-01-24 11:15:00,9.7,-0.4,30.57,ESE,122,1.0,3.0,63,0.00,,,0.00,Wunderground v.1.15,2013-01-24 17:15:00,
2013-01-24 11:20:00,10.1,0.0,30.57,SE,135,1.0,1.0,63,0.00,,,0.00,Wunderground v.1.15,2013-01-24 17:20:00,
2013-01-24 11:25:00,9.8,-1.0,30.57,SE,131,2.0,2.0,61,0.00,,,0.00,Wunderground v.1.15,2013-01-24 17:25:00,
2013-01-24 11:35:00,10.3,0.2,30.55,SE,141,2.0,3.0,63,0.00,,,0.00,Wunderground v.1.15,2013-01-24 17:35:00,
2013-01-24 11:40:00,10.6,0.5,30.55,ESE,103,2.0,4.0,63,0.00,,,0.00,Wunderground v.1.15,2013-01-24 17:40:00,
2013-01-24 11:45:00,10.6,0.1,30.54,East,82,2.0,4.0,62,0.00,,,0.00,Wunderground v.1.15,2013-01-24 17:45:00,
2013-01-24 11:50:00,10.7,0.2,30.55,East,97,3.0,6.0,62,0.00,,,0.00,Wunderground v.1.15,2013-01-24 17:50:00,
2013-01-24 11:55:00,10.6,0.1,30.54,ESE,115,3.0,8.0,62,0.00,,,0.00,Wunderground v.1.15,2013-01-24 17:55:00,
2013-01-24 12:00:00,10.7,0.2,30.53,ESE,107,3.0,3.0,62,0.00,,,0.00,Wunderground v.1.15,2013-01-24 18:00:00,
2013-01-24 12:10:00,11.2,0.7,30.51,ESE,104,3.0,5.0,62,0.00,,,0.00,Wunderground v.1.15,2013-01-24 18:10:00,
2013-01-24 12:15:00,11.5,1.3,30.50,East,88,3.0,5.0,63,0.00,,,0.00,Wunderground v.1.15,2013-01-24 18:15:00,
2013-01-24 12:20:00,11.6,0.7,30.50,SE,127,3.0,5.0,61,0.00,,,0.00,Wunderground v.1.15,2013-01-24 18:20:00,
2013-01-24 12:25:00,11.7,1.5,30.50,ESE,117,3.0,5.0,63,0.00,,,0.00,Wunderground v.1.15,2013-01-24 18:25:00,
2013-01-24 12:30:00,12.2,1.3,30.49,ESE,112,3.0,3.0,61,0.00,,,0.00,Wunderground v.1.15,2013-01-24 18:30:00,
2013-01-24 12:35:00,12.8,1.9,30.48,SE,128,2.0,3.0,61,0.00,,,0.00,Wunderground v.1.15,2013-01-24 18:35:00,
2013-01-24 12:40:00,12.9,2.0,30.47,SE,138,2.0,2.0,61,0.00,,,0.00,Wunderground v.1.15,2013-01-24 18:40:00,
2013-01-24 12:50:00,12.9,0.9,30.47,East,101,3.0,3.0,58,0.00,,,0.00,Wunderground v.1.15,2013-01-24 18:50:00,
2013-01-24 12:55:00,12.9,1.2,30.46,East,88,3.0,3.0,59,0.00,,,0.00,Wunderground v.1.15,2013-01-24 18:55:00,
2013-01-24 13:05:00,13.3,1.6,30.46,ESE,113,2.0,4.0,59,0.00,,,0.00,Wunderground v.1.15,2013-01-24 19:05:00,
2013-01-24 13:10:00,13.3,2.0,30.47,ENE,74,2.0,3.0,60,0.00,,,0.00,Wunderground v.1.15,2013-01-24 19:10:00,
2013-01-24 13:15:00,13.9,2.6,30.47,SE,125,2.0,3.0,60,0.00,,,0.00,Wunderground v.1.15,2013-01-24 19:15:00,
2013-01-24 13:20:00,14.4,2.3,30.47,ESE,110,2.0,2.0,58,0.00,,,0.00,Wunderground v.1.15,2013-01-24 19:20:00,
2013-01-24 13:30:00,15.0,2.5,30.45,SE,124,2.0,3.0,57,0.00,,,0.00,Wunderground v.1.15,2013-01-24 19:30:00,
2013-01-24 13:35:00,14.9,2.0,30.45,SE,134,2.0,3.0,56,0.00,,,0.00,Wunderground v.1.15,2013-01-24 19:35:00,
2013-01-24 13:40:00,15.2,2.7,30.45,ESE,113,1.0,3.0,57,0.00,,,0.00,Wunderground v.1.15,2013-01-24 19:40:00,
2013-01-24 13:45:00,15.5,2.6,30.44,ENE,78,2.0,5.0,56,0.00,,,0.00,Wunderground v.1.15,2013-01-24 19:45:00,
2013-01-24 13:50:00,15.2,1.9,30.43,ESE,115,2.0,2.0,55,0.00,,,0.00,Wunderground v.1.15,2013-01-24 19:50:00,
2013-01-24 13:55:00,15.0,1.7,30.42,SE,136,3.0,3.0,55,0.00,,,0.00,Wunderground v.1.15,2013-01-24 19:55:00,
2013-01-24 14:05:00,15.1,1.4,30.42,East,89,3.0,3.0,54,0.00,,,0.00,Wunderground v.1.15,2013-01-24 20:05:00,
2013-01-24 14:10:00,15.2,1.9,30.41,ESE,108,3.0,3.0,55,0.00,,,0.00,Wunderground v.1.15,2013-01-24 20:10:00,
2013-01-24 14:15:00,15.4,2.5,30.41,ESE,105,2.0,3.0,56,0.00,,,0.00,Wunderground v.1.15,2013-01-24 20:15:00,
2013-01-24 14:20:00,15.6,2.3,30.41,ESE,110,2.0,2.0,55,0.00,,,0.00,Wunderground v.1.15,2013-01-24 20:20:00,
2013-01-24 14:25:00,15.5,2.2,30.41,SE,131,2.0,5.0,55,0.00,,,0.00,Wunderground v.1.15,2013-01-24 20:25:00,
2013-01-24 14:30:00,15.7,2.4,30.39,ENE,77,2.0,2.0,55,0.00,,,0.00,Wunderground v.1.15,2013-01-24 20:30:00,
2013-01-24 14:35:00,15.9,2.6,30.39,ENE,73,2.0,3.0,55,0.00,,,0.00,Wunderground v.1.15,2013-01-24 20:35:00,
2013-01-24 14:45:00,16.0,2.7,30.39,SE,136,2.0,4.0,55,0.00,,,0.00,Wunderground v.1.15,2013-01-24 20:45:00,
2013-01-24 14:50:00,16.3,2.5,30.38,East,100,2.0,2.0,54,0.00,,,0.00,Wunderground v.1.15,2013-01-24 20:50:00,
2013-01-24 14:55:00,16.3,2.5,30.38,SE,129,2.0,3.0,54,0.00,,,0.00,Wunderground v.1.15,2013-01-24 20:55:00,
2013-01-24 15:00:00,16.3,2.5,30.37,East,96,2.0,3.0,54,0.00,,,0.00,Wunderground v.1.15,2013-01-24 21:00:00,
2013-01-24 15:05:00,16.3,2.5,30.37,SE,134,3.0,3.0,54,0.00,,,0.00,Wunderground v.1.15,2013-01-24 21:05:00,
2013-01-24 15:10:00,16.6,2.8,30.37,ESE,110,2.0,2.0,54,0.00,,,0.00,Wunderground v.1.15,2013-01-24 21:10:00,
2013-01-24 15:15:00,16.8,2.6,30.36,SSE,152,2.0,3.0,53,0.00,,,0.00,Wunderground v.1.15,2013-01-24 21:15:00,
2013-01-24 15:20:00,16.7,2.1,30.36,East,101,2.0,3.0,52,0.00,,,0.00,Wunderground v.1.15,2013-01-24 21:20:00,
2013-01-24 15:30:00,16.7,2.5,30.35,East,86,2.0,2.0,53,0.00,,,0.00,Wunderground v.1.15,2013-01-24 21:30:00,
2013-01-24 15:35:00,16.9,3.1,30.35,SE,139,2.0,4.0,54,0.00,,,0.00,Wunderground v.1.15,2013-01-24 21:35:00,
2013-01-24 15:40:00,16.9,2.3,30.35,East,97,2.0,3.0,52,0.00,,,0.00,Wunderground v.1.15,2013-01-24 21:40:00,
2013-01-24 15:45:00,17.0,2.8,30.35,ESE,121,2.0,3.0,53,0.00,,,0.00,Wunderground v.1.15,2013-01-24 21:45:00,
2013-01-24 15:50:00,17.0,2.8,30.35,ESE,110,3.0,3.0,53,0.00,,,0.00,Wunderground v.1.15,2013-01-24 21:50:00,
2013-01-24 15:55:00,17.0,2.4,30.35,ESE,122,3.0,4.0,52,0.00,,,0.00,Wunderground v.1.15,2013-01-24 21:55:00,
2013-01-24 16:00:00,16.9,2.3,30.35,East,89,3.0,4.0,52,0.00,,,0.00,Wunderground v.1.15,2013-01-24 22:00:00,
2013-01-24 16:10:00,17.1,2.9,30.34,ESE,116,2.0,5.0,53,0.00,,,0.00,Wunderground v.1.15,2013-01-24 22:10:00,
2013-01-24 16:15:00,17.1,3.3,30.35,SSE,153,3.0,5.0,54,0.00,,,0.00,Wunderground v.1.15,2013-01-24 22:15:00,
2013-01-24 16:20:00,17.2,3.0,30.35,ESE,107,3.0,3.0,53,0.00,,,0.00,Wunderground v.1.15,2013-01-24 22:20:00,
2013-01-24 16:25:00,17.2,3.0,30.34,ENE,68,2.0,3.0,53,0.00,,,0.00,Wunderground v.1.15,2013-01-24 22:25:00,
2013-01-24 16:30:00,17.2,3.0,30.34,SE,132,3.0,3.0,53,0.00,,,0.00,Wunderground v.1.15,2013-01-24 22:30:00,
2013-01-24 16:35:00,17.2,3.0,30.34,East,97,4.0,4.0,53,0.00,,,0.00,Wunderground v.1.15,2013-01-24 22:35:00,
2013-01-24 16:45:00,17.3,3.5,30.33,East,92,3.0,5.0,54,0.00,,,0.00,Wunderground v.1.15,2013-01-24 22:45:00,
2013-01-24 16:50:00,17.3,3.5,30.33,SE,129,3.0,3.0,54,0.00,,,0.00,Wunderground v.1.15,2013-01-24 22:50:00,
2013-01-24 16:55:00,17.4,3.6,30.32,SE,124,2.0,3.0,54,0.00,,,0.00,Wunderground v.1.15,2013-01-24 22:55:00,
2013-01-24 17:00:00,17.4,3.6,30.33,East,85,2.0,2.0,54,0.00,,,0.00,Wunderground v.1.15,2013-01-24 23:00:00,
2013-01-24 17:05:00,17.4,3.6,30.33,ESE,102,2.0,3.0,54,0.00,,,0.00,Wunderground v.1.15,2013-01-24 23:05:00,
2013-01-24 17:10:00,17.5,3.7,30.32,ESE,116,2.0,3.0,54,0.00,,,0.00,Wunderground v.1.15,2013-01-24 23:10:00,
2013-01-24 17:15:00,17.5,3.7,30.31,SE,127,3.0,4.0,54,0.00,,,0.00,Wunderground v.1.15,2013-01-24 23:15:00,
2013-01-24 17:25:00,17.5,3.7,30.31,East,101,3.0,4.0,54,0.00,,,0.00,Wunderground v.1.15,2013-01-24 23:25:00,
2013-01-24 17:30:00,17.5,3.7,30.31,East,101,2.0,3.0,54,0.00,,,0.00,Wunderground v.1.15,2013-01-24 23:30:00,
2013-01-24 17:35:00,17.6,3.8,30.30,East,82,2.0,3.0,54,0.00,,,0.00,Wunderground v.1.15,2013-01-24 23:35:00,
2013-01-24 17:40:00,17.6,3.8,30.30,ESE,121,2.0,3.0,54,0.00,,,0.00,Wunderground v.1.15,2013-01-24 23:40:00,
2013-01-24 17:45:00,17.7,3.8,30.30,ESE,103,3.0,5.0,54,0.00,,,0.00,Wunderground v.1.15,2013-01-24 23:45:00,
2013-01-24 17:50:00,17.6,3.8,30.29,NW,304,4.0,4.0,54,0.00,,,0.00,Wunderground v.1.15,2013-01-24 23:50:00,
2013-01-24 17:55:00,17.7,3.8,30.29,ESE,115,3.0,4.0,54,0.00,,,0.00,Wunderground v.1.15,2013-01-24 23:55:00,
2013-01-24 18:05:00,17.8,3.9,30.29,SE,139,3.0,3.0,54,0.00,,,0.00,Wunderground v.1.15,2013-01-25 00:05:00,
2013-01-24 18:10:00,17.9,4.4,30.28,East,88,2.0,3.0,55,0.00,,,0.00,Wunderground v.1.15,2013-01-25 00:10:00,
2013-01-24 18:15:00,17.9,4.0,30.28,SE,131,2.0,3.0,54,0.00,,,0.00,Wunderground v.1.15,2013-01-25 00:15:00,
2013-01-24 18:20:00,17.9,4.0,30.29,ESE,113,3.0,4.0,54,0.00,,,0.00,Wunderground v.1.15,2013-01-25 00:20:00,
2013-01-24 18:25:00,18.0,3.7,30.29,ESE,113,4.0,4.0,53,0.00,,,0.00,Wunderground v.1.15,2013-01-25 00:25:00,
2013-01-24 18:30:00,18.0,4.1,30.29,WSW,257,4.0,4.0,54,0.00,,,0.00,Wunderground v.1.15,2013-01-25 00:30:00,
2013-01-24 18:40:00,18.1,3.8,30.29,NE,49,3.0,4.0,53,0.00,,,0.00,Wunderground v.1.15,2013-01-25 00:40:00,
2013-01-24 18:45:00,18.1,3.8,30.29,ESE,115,3.0,4.0,53,0.00,,,0.00,Wunderground v.1.15,2013-01-25 00:45:00,
2013-01-24 18:50:00,18.2,4.3,30.29,SE,124,3.0,4.0,54,0.00,,,0.00,Wunderground v.1.15,2013-01-25 00:50:00,
2013-01-24 18:55:00,18.2,4.3,30.30,ESE,102,3.0,4.0,54,0.00,,,0.00,Wunderground v.1.15,2013-01-25 00:55:00,
2013-01-24 19:00:00,18.3,4.0,30.30,East,101,3.0,5.0,53,0.00,,,0.00,Wunderground v.1.15,2013-01-25 01:00:00,
2013-01-24 19:05:00,18.3,4.4,30.30,SE,142,3.0,5.0,54,0.00,,,0.00,Wunderground v.1.15,2013-01-25 01:05:00,
2013-01-24 19:15:00,18.3,4.0,30.30,SSE,160,4.0,4.0,53,0.00,,,0.00,Wunderground v.1.15,2013-01-25 01:15:00,
2013-01-24 19:20:00,18.4,4.1,30.30,East,91,4.0,4.0,53,0.00,,,0.00,Wunderground v.1.15,2013-01-25 01:20:00,
2013-01-24 19:25:00,18.4,4.1,30.30,ESE,117,3.0,5.0,53,0.00,,,0.00,Wunderground v.1.15,2013-01-25 01:25:00,
2013-01-24 19:30:00,18.5,4.6,30.30,ESE,118,3.0,3.0,54,0.00,,,0.00,Wunderground v.1.15,2013-01-25 01:30:00,
2013-01-24 19:35:00,18.5,4.6,30.30,East,93,2.0,3.0,54,0.00,,,0.00,Wunderground v.1.15,2013-01-25 01:35:00,
2013-01-24 19:40:00,18.5,4.2,30.29,East,101,3.0,3.0,53,0.00,,,0.00,Wunderground v.1.15,2013-01-25 01:40:00,
2013-01-24 19:45:00,18.5,4.2,30.28,SSW,197,4.0,4.0,53,0.00,,,0.00,Wunderground v.1.15,2013-01-25 01:45:00,
2013-01-24 19:55:00,18.5,4.6,30.27,SE,129,5.0,5.0,54,0.00,,,0.00,Wunderground v.1.15,2013-01-25 01:55:00,
2013-01-24 20:00:00,18.6,4.7,30.28,East,100,4.0,4.0,54,0.00,,,0.00,Wunderground v.1.15,2013-01-25 02:00:00,
2013-01-24 20:05:00,18.6,4.7,30.28,ESE,107,4.0,4.0,54,0.00,,,0.00,Wunderground v.1.15,2013-01-25 02:05:00,
2013-01-24 20:10:00,18.7,4.8,30.28,ESE,110,4.0,4.0,54,0.00,,,0.00,Wunderground v.1.15,2013-01-25 02:10:00,
2013-01-24 20:15:00,18.7,4.8,30.28,ESE,113,4.0,4.0,54,0.00,,,0.00,Wunderground v.1.15,2013-01-25 02:15:00,
2013-01-24 20:20:00,18.8,4.9,30.28,SE,130,4.0,4.0,54,0.00,,,0.00,Wunderground v.1.15,2013-01-25 02:20:00,
2013-01-24 20:30:00,18.8,4.5,30.28,East,94,4.0,4.0,53,0.00,,,0.00,Wunderground v.1.15,2013-01-25 02:30:00,
2013-01-24 20:35:00,18.8,4.9,30.27,SW,224,4.0,4.0,54,0.00,,,0.00,Wunderground v.1.15,2013-01-25 02:35:00,
2013-01-24 20:40:00,18.8,5.3,30.28,SE,142,4.0,4.0,55,0.00,,,0.00,Wunderground v.1.15,2013-01-25 02:40:00,
2013-01-24 20:45:00,18.9,5.0,30.28,East,88,2.0,4.0,54,0.00,,,0.00,Wunderground v.1.15,2013-01-25 02:45:00,
2013-01-24 20:50:00,19.0,5.5,30.28,West,280,2.0,6.0,55,0.00,,,0.00,Wunderground v.1.15,2013-01-25 02:50:00,
2013-01-24 20:55:00,19.0,5.1,30.29,SE,130,3.0,6.0,54,0.00,,,0.00,Wunderground v.1.15,2013-01-25 02:55:00,
2013-01-24 21:00:00,19.0,5.5,30.29,ESE,115,3.0,5.0,55,0.00,,,0.00,Wunderground v.1.15,2013-01-25 03:00:00,
2013-01-24 21:10:00,19.0,5.5,30.28,ESE,111,3.0,3.0,55,0.00,,,0.00,Wunderground v.1.15,2013-01-25 03:10:00,
2013-01-24 21:15:00,19.1,5.6,30.28,SE,130,3.0,3.0,55,0.00,,,0.00,Wunderground v.1.15,2013-01-25 03:15:00,
2013-01-24 21:20:00,19.1,5.6,30.28,East,96,3.0,3.0,55,0.00,,,0.00,Wunderground v.1.15,2013-01-25 03:20:00,
2013-01-24 21:25:00,19.1,5.6,30.29,East,96,2.0,3.0,55,0.00,,,0.00,Wunderground v.1.15,2013-01-25 03:25:00,
2013-01-24 21:30:00,19.2,5.7,30.30,East,99,2.0,2.0,55,0.00,,,0.00,Wunderground v.1.15,2013-01-25 03:30:00,
2013-01-24 21:35:00,19.2,5.7,30.31,SE,134,1.0,3.0,55,0.00,,,0.00,Wunderground v.1.15,2013-01-25 03:35:00,
2013-01-24 21:45:00,19.3,5.7,30.31,ESE,110,2.0,3.0,55,0.00,,,0.00,Wunderground v.1.15,2013-01-25 03:45:00,
2013-01-24 21:55:00,19.3,6.1,30.31,ESE,108,1.0,3.0,56,0.00,,,0.00,Wunderground v.1.15,2013-01-25 03:55:00,
2013-01-24 22:00:00,19.4,5.8,30.30,ESE,105,2.0,3.0,55,0.00,,,0.00,Wunderground v.1.15,2013-01-25 04:00:00,
2013-01-24 22:05:00,19.4,6.2,30.30,ESE,110,2.0,3.0,56,0.00,,,0.00,Wunderground v.1.15,2013-01-25 04:05:00,
2013-01-24 22:10:00,19.4,5.8,30.30,East,85,2.0,3.0,55,0.00,,,0.00,Wunderground v.1.15,2013-01-25 04:10:00,
2013-01-24 22:15:00,19.4,6.2,30.30,ESE,107,2.0,3.0,56,0.00,,,0.00,Wunderground v.1.15,2013-01-25 04:15:00,
2013-01-24 22:20:00,19.5,6.3,30.31,East,101,1.0,3.0,56,0.00,,,0.00,Wunderground v.1.15,2013-01-25 04:20:00,
2013-01-24 22:25:00,19.5,6.7,30.30,East,100,1.0,3.0,57,0.00,,,0.00,Wunderground v.1.15,2013-01-25 04:25:00,
2013-01-24 22:35:00,19.5,6.3,30.28,SE,124,2.0,3.0,56,0.00,,,0.00,Wunderground v.1.15,2013-01-25 04:35:00,
2013-01-24 22:40:00,19.5,6.7,30.27,ESE,110,3.0,5.0,57,0.00,,,0.00,Wunderground v.1.15,2013-01-25 04:40:00,
2013-01-24 22:45:00,19.5,6.3,30.28,East,101,2.0,5.0,56,0.00,,,0.00,Wunderground v.1.15,2013-01-25 04:45:00,
2013-01-24 22:50:00,19.5,6.3,30.28,ESE,103,2.0,3.0,56,0.00,,,0.00,Wunderground v.1.15,2013-01-25 04:50:00,
2013-01-24 22:55:00,19.6,6.8,30.28,ESE,110,2.0,3.0,57,0.00,,,0.00,Wunderground v.1.15,2013-01-25 04:55:00,
2013-01-24 23:00:00,19.6,6.4,30.28,East,97,2.0,3.0,56,0.00,,,0.00,Wunderground v.1.15,2013-01-25 05:00:00,
2013-01-24 23:05:00,19.5,6.7,30.28,ESE,108,2.0,3.0,57,0.00,,,0.00,Wunderground v.1.15,2013-01-25 05:05:00,
2013-01-24 23:10:00,19.5,6.7,30.29,ESE,120,2.0,2.0,57,0.00,,,0.00,Wunderground v.1.15,2013-01-25 05:10:00,
2013-01-24 23:15:00,19.5,6.7,30.29,SE,133,1.0,3.0,57,0.00,,,0.00,Wunderground v.1.15,2013-01-25 05:15:00,
2013-01-24 23:20:00,19.6,6.8,30.29,East,97,1.0,3.0,57,0.00,,,0.00,Wunderground v.1.15,2013-01-25 05:20:00,
2013-01-24 23:30:00,19.5,6.7,30.29,East,96,1.0,3.0,57,0.00,,,0.00,Wunderground v.1.15,2013-01-25 05:30:00,
2013-01-24 23:35:00,19.6,7.2,30.29,ESE,122,1.0,3.0,58,0.00,,,0.00,Wunderground v.1.15,2013-01-25 05:35:00,
2013-01-24 23:40:00,19.6,7.2,30.29,SE,136,1.0,1.0,58,0.00,,,0.00,Wunderground v.1.15,2013-01-25 05:40:00,
2013-01-24 23:45:00,19.6,7.2,30.29,East,101,1.0,3.0,58,0.00,,,0.00,Wunderground v.1.15,2013-01-25 05:45:00,
2013-01-24 23:50:00,19.6,7.2,30.29,ESE,118,1.0,3.0,58,0.00,,,0.00,Wunderground v.1.15,2013-01-25 05:50:00,
2013-01-24 23:55:00,19.6,7.2,30.29,ENE,78,1.0,3.0,58,0.00,,,0.00,Wunderground v.1.15,2013-01-25 05:55:00,